createdAt,value
2019-03-11T00:01:16.686Z,98636.78
2019-03-11T00:03:47.071Z,98632.80
2019-03-11T00:06:17.511Z,98633.06
2019-03-11T00:08:47.902Z,98632.98
2019-03-11T00:11:18.279Z,98641.02
2019-03-11T00:13:48.687Z,98638.52
2019-03-11T00:16:19.207Z,98640.64
2019-03-11T00:18:49.619Z,98624.78
2019-03-11T00:21:20.010Z,98630.19
2019-03-11T00:23:50.439Z,98629.80
2019-03-11T00:26:22.032Z,98626.52
2019-03-11T00:28:52.420Z,98615.69
2019-03-11T00:31:22.816Z,98611.55
2019-03-11T00:33:53.203Z,98610.77
2019-03-11T00:36:23.565Z,98612.88
2019-03-11T00:38:53.996Z,98603.69
2019-03-11T00:41:24.406Z,98602.80
2019-03-11T00:43:54.769Z,98610.11
2019-03-11T00:46:25.183Z,98605.84
2019-03-11T00:48:55.678Z,98605.47
2019-03-11T00:51:26.068Z,98604.44
2019-03-11T00:53:56.495Z,98597.68
2019-03-11T00:56:26.867Z,98596.03
2019-03-11T00:58:57.362Z,98600.16
2019-03-11T01:01:27.838Z,98596.78
2019-03-11T01:03:58.228Z,98605.47
2019-03-11T01:06:28.953Z,98607.48
2019-03-11T01:08:59.348Z,98614.66
2019-03-11T01:11:29.750Z,98614.32
2019-03-11T01:14:00.148Z,98618.97
2019-03-11T01:16:30.606Z,98614.33
2019-03-11T01:19:00.997Z,98628.27
2019-03-11T01:21:31.382Z,98614.94
2019-03-11T01:24:01.805Z,98622.72
2019-03-11T01:26:32.276Z,98617.56
2019-03-11T01:29:02.727Z,98621.08
2019-03-11T01:31:34.097Z,98619.34
2019-03-11T01:34:04.523Z,98617.88
2019-03-11T01:36:34.922Z,98617.88
2019-03-11T01:39:06.546Z,98609.61
2019-03-11T01:41:36.976Z,98614.58
2019-03-11T01:44:08.952Z,98610.34
2019-03-11T01:46:39.369Z,98611.80
2019-03-11T01:49:09.793Z,98617.02
2019-03-11T01:51:40.200Z,98606.98
2019-03-11T01:54:10.622Z,98608.77
2019-03-11T01:56:40.991Z,98610.88
2019-03-11T01:59:11.427Z,98616.05
2019-03-11T02:01:41.829Z,98607.27
2019-03-11T02:04:12.257Z,98617.49
2019-03-11T02:06:42.653Z,98623.59
2019-03-11T02:09:13.173Z,98633.67
2019-03-11T02:11:43.570Z,98634.14
2019-03-11T02:14:14.004Z,98624.80
2019-03-11T02:16:44.449Z,98632.23
2019-03-11T02:19:15.028Z,98625.77
2019-03-11T02:21:45.445Z,98625.95
2019-03-11T02:24:15.863Z,98618.96
2019-03-11T02:26:46.284Z,98614.07
2019-03-11T02:29:16.696Z,98612.66
2019-03-11T02:31:47.141Z,98610.30
2019-03-11T02:34:17.506Z,98598.37
2019-03-11T02:36:47.944Z,98593.09
2019-03-11T02:39:18.348Z,98583.56
2019-03-11T02:41:48.725Z,98580.42
2019-03-11T02:44:19.154Z,98574.14
2019-03-11T02:46:49.530Z,98567.39
2019-03-11T02:49:19.938Z,98568.56
2019-03-11T02:51:50.370Z,98558.63
2019-03-11T02:54:20.907Z,98557.65
2019-03-11T02:56:51.285Z,98552.53
2019-03-11T02:59:21.696Z,98544.13
2019-03-11T03:01:56.376Z,98540.84
2019-03-11T03:04:28.414Z,98539.34
2019-03-11T03:06:58.769Z,98527.98
2019-03-11T03:09:31.623Z,98517.14
2019-03-11T03:12:01.268Z,98515.77
2019-03-11T03:14:31.683Z,98509.89
2019-03-11T03:17:02.108Z,98504.84
2019-03-11T03:19:32.480Z,98510.31
2019-03-11T03:22:02.872Z,98496.05
2019-03-11T03:24:33.268Z,98506.87
2019-03-11T03:27:03.606Z,98499.52
2019-03-11T03:29:34.015Z,98495.27
2019-03-11T03:32:04.397Z,98486.23
2019-03-11T03:34:34.810Z,98479.03
2019-03-11T03:37:05.211Z,98477.34
2019-03-11T03:39:35.616Z,98475.06
2019-03-11T03:42:06.067Z,98482.33
2019-03-11T03:44:37.329Z,98469.23
2019-03-11T03:47:08.674Z,98460.42
2019-03-11T03:49:38.980Z,98457.46
2019-03-11T03:52:09.376Z,98450.90
2019-03-11T03:54:39.885Z,98452.91
2019-03-11T03:57:10.261Z,98442.62
2019-03-11T03:59:40.685Z,98439.99
2019-03-11T04:02:11.112Z,98425.09
2019-03-11T04:04:41.549Z,98428.63
2019-03-11T04:07:11.958Z,98422.45
2019-03-11T04:09:42.376Z,98416.87
2019-03-11T04:12:12.819Z,98411.28
2019-03-11T04:14:43.230Z,98405.84
2019-03-11T04:17:13.624Z,98404.08
2019-03-11T04:19:45.649Z,98397.16
2019-03-11T04:22:16.541Z,98393.91
2019-03-11T04:24:46.925Z,98391.94
2019-03-11T04:27:17.312Z,98390.31
2019-03-11T04:29:47.724Z,98384.72
2019-03-11T04:32:18.111Z,98385.04
2019-03-11T04:34:48.492Z,98375.64
2019-03-11T04:37:18.891Z,98380.59
2019-03-11T04:39:49.295Z,98384.39
2019-03-11T04:42:19.698Z,98378.77
2019-03-11T04:44:50.029Z,98378.11
2019-03-11T04:47:20.436Z,98375.48
2019-03-11T04:49:50.860Z,98375.95
2019-03-11T04:52:21.257Z,98373.98
2019-03-11T04:54:51.609Z,98370.33
2019-03-11T04:57:23.560Z,98370.00
2019-03-11T04:59:54.015Z,98368.20
2019-03-11T05:02:24.403Z,98369.20
2019-03-11T05:04:54.802Z,98368.55
2019-03-11T05:07:25.179Z,98363.42
2019-03-11T05:09:55.578Z,98364.89
2019-03-11T05:12:25.982Z,98356.66
2019-03-11T05:14:56.407Z,98355.83
2019-03-11T05:17:26.808Z,98353.99
2019-03-11T05:19:57.163Z,98338.80
2019-03-11T05:22:27.565Z,98346.56
2019-03-11T05:24:57.983Z,98337.31
2019-03-11T05:27:28.413Z,98332.84
2019-03-11T05:29:58.799Z,98336.78
2019-03-11T05:32:29.236Z,98334.00
2019-03-11T05:34:59.814Z,98327.21
2019-03-11T05:37:30.332Z,98314.31
2019-03-11T05:40:00.758Z,98320.25
2019-03-11T05:42:31.170Z,98313.52
2019-03-11T05:45:01.581Z,98300.64
2019-03-11T05:47:31.954Z,98297.17
2019-03-11T05:50:02.310Z,98294.87
2019-03-11T05:52:32.719Z,98294.35
2019-03-11T05:55:03.104Z,98291.91
2019-03-11T05:57:33.630Z,98288.58
2019-03-11T06:00:06.059Z,98279.34
2019-03-11T06:02:36.790Z,98278.72
2019-03-11T06:05:07.420Z,98274.42
2019-03-11T06:07:38.981Z,98276.41
2019-03-11T06:10:11.391Z,98265.64
2019-03-11T06:12:43.383Z,98263.14
2019-03-11T06:15:16.461Z,98256.17
2019-03-11T06:17:48.671Z,98249.36
2019-03-11T06:20:36.794Z,98240.42
2019-03-11T06:23:08.733Z,98231.52
2019-03-11T06:25:39.005Z,98217.67
2019-03-11T06:28:09.432Z,98208.71
2019-03-11T06:30:39.828Z,98199.80
2019-03-11T06:33:10.222Z,98197.74
2019-03-11T06:35:40.771Z,98185.33
2019-03-11T06:38:11.103Z,98178.50
2019-03-11T06:40:41.505Z,98169.55
2019-03-11T06:43:11.957Z,98162.67
2019-03-11T06:45:42.366Z,98164.41
2019-03-11T06:48:12.783Z,98166.47
2019-03-11T06:50:43.155Z,98157.42
2019-03-11T06:53:13.536Z,98155.42
2019-03-11T06:55:44.433Z,98149.25
2019-03-11T06:58:14.877Z,98137.28
2019-03-11T07:00:45.280Z,98123.51
2019-03-11T07:03:15.707Z,98121.48
2019-03-11T07:05:46.193Z,98114.77
2019-03-11T07:08:16.592Z,98115.77
2019-03-11T07:10:46.977Z,98111.62
2019-03-11T07:13:17.367Z,98111.31
2019-03-11T07:15:47.771Z,98108.25
2019-03-11T07:18:18.173Z,98101.08
2019-03-11T07:20:48.577Z,98090.98
2019-03-11T07:23:18.976Z,98079.56
2019-03-11T07:25:49.368Z,98071.91
2019-03-11T07:28:19.797Z,98071.95
2019-03-11T07:30:50.179Z,98074.19
2019-03-11T07:33:32.255Z,98062.20
2019-03-11T07:36:11.931Z,98067.05
2019-03-11T07:38:58.127Z,98066.05
2019-03-11T07:42:00.595Z,98059.34
2019-03-11T07:44:10.476Z,98059.70
2019-03-11T07:46:41.097Z,98042.09
2019-03-11T07:49:21.442Z,98038.62
2019-03-11T07:52:03.132Z,98028.66
2019-03-11T07:55:31.159Z,98017.25
2019-03-11T07:57:54.340Z,98003.63
2019-03-11T08:00:53.494Z,97999.43
2019-03-11T08:03:14.657Z,97993.48
2019-03-11T08:05:45.208Z,97998.80
2019-03-11T08:08:21.605Z,97996.73
2019-03-11T08:10:57.217Z,97989.20
2019-03-11T08:13:29.132Z,97980.60
2019-03-11T08:15:59.612Z,97983.07
2019-03-11T08:18:46.893Z,97982.05
2019-03-11T08:24:49.222Z,97976.34
2019-03-11T08:27:41.737Z,97986.08
2019-03-11T08:30:17.999Z,97983.44
2019-03-11T08:33:04.201Z,97967.13
2019-03-11T08:35:55.172Z,97967.13
2019-03-11T08:38:26.100Z,97962.80
2019-03-11T08:40:57.954Z,97950.20
2019-03-11T08:46:29.294Z,97962.17
2019-03-11T08:49:06.503Z,97944.63
2019-03-11T08:55:15.291Z,97937.13
2019-03-11T08:57:58.463Z,97928.86
2019-03-11T09:00:48.856Z,97937.69
2019-03-11T09:03:29.016Z,97919.95
2019-03-11T09:09:17.792Z,97924.44
2019-03-11T09:11:58.658Z,97921.48
2019-03-11T09:15:05.454Z,97920.30
2019-03-11T09:18:02.625Z,97915.06
2019-03-11T09:20:55.271Z,97916.89
2019-03-11T09:23:50.407Z,97908.75
2019-03-11T09:26:37.623Z,97912.19
2019-03-11T09:29:21.795Z,97918.03
2019-03-11T09:31:55.681Z,97917.51
2019-03-11T09:34:36.997Z,97910.45
2019-03-11T09:37:13.836Z,97909.41
2019-03-11T09:42:49.827Z,97913.91
2019-03-11T09:45:46.998Z,97907.22
2019-03-11T09:51:34.898Z,97902.23
2019-03-11T09:54:28.820Z,97904.16
2019-03-11T09:57:19.701Z,97898.54
2019-03-11T10:02:03.737Z,97905.84
2019-03-11T10:06:38.103Z,97888.04
2019-03-11T10:09:10.243Z,97873.45
2019-03-11T10:11:52.464Z,97863.05
2019-03-11T10:14:51.074Z,97861.93
2019-03-11T10:17:50.792Z,97849.80
2019-03-11T10:20:25.516Z,97855.05
2019-03-11T10:23:15.128Z,97868.56
2019-03-11T10:26:10.448Z,97857.08
2019-03-11T10:28:46.225Z,97861.07
2019-03-11T10:41:10.252Z,97866.52
2019-03-11T10:43:51.852Z,97864.91
2019-03-11T10:47:42.192Z,97863.08
2019-03-11T10:52:55.305Z,97855.66
2019-03-11T10:55:50.931Z,97869.42
2019-03-11T11:05:07.230Z,97855.03
2019-03-11T11:14:52.076Z,97860.45
2019-03-11T11:20:52.932Z,97833.16
2019-03-11T11:23:27.959Z,97848.57
2019-03-11T11:32:01.170Z,97868.98
2019-03-11T11:35:02.245Z,97870.36
2019-03-11T11:41:03.820Z,97861.35
2019-03-11T11:43:57.798Z,97852.45
2019-03-11T11:46:32.009Z,97856.69
2019-03-11T11:52:13.928Z,97845.47
2019-03-11T11:54:46.087Z,97853.41
2019-03-11T11:57:19.219Z,97874.48
2019-03-11T11:59:54.076Z,97878.55
2019-03-11T12:02:32.545Z,97870.70
2019-03-11T12:05:06.665Z,97874.39
2019-03-11T12:07:48.986Z,97869.65
2019-03-11T12:10:33.903Z,97869.87
2019-03-11T12:13:10.649Z,97893.45
2019-03-11T12:15:42.202Z,97899.75
2019-03-11T12:18:13.257Z,97883.22
2019-03-11T12:20:47.265Z,97899.02
2019-03-11T12:23:17.750Z,97893.39
2019-03-11T12:25:48.211Z,97902.64
2019-03-11T12:28:18.774Z,97903.41
2019-03-11T12:30:53.531Z,97894.80
2019-03-11T12:33:24.176Z,97900.65
2019-03-11T12:35:54.730Z,97894.57
2019-03-11T12:38:28.804Z,97905.34
2019-03-11T12:40:59.063Z,97888.05
2019-03-11T12:43:29.478Z,97885.76
2019-03-11T12:45:59.924Z,97898.52
2019-03-11T12:48:30.311Z,97895.55
2019-03-11T12:51:00.767Z,97898.36
2019-03-11T12:53:31.168Z,97890.80
2019-03-11T12:56:06.996Z,97891.84
2019-03-11T12:58:41.766Z,97902.23
2019-03-11T13:01:13.139Z,97897.08
2019-03-11T13:03:45.223Z,97898.30
2019-03-11T13:06:15.633Z,97906.52
2019-03-11T13:08:46.053Z,97915.58
2019-03-11T13:11:16.535Z,97914.14
2019-03-11T13:13:46.991Z,97916.80
2019-03-11T13:16:17.419Z,97912.59
2019-03-11T13:18:47.858Z,97910.09
2019-03-11T13:21:24.199Z,97906.53
2019-03-11T13:23:54.619Z,97912.09
2019-03-11T13:26:25.083Z,97900.87
2019-03-11T13:28:57.104Z,97911.64
2019-03-11T13:31:27.619Z,97918.39
2019-03-11T13:33:58.108Z,97916.89
2019-03-11T13:36:28.495Z,97927.34
2019-03-11T13:38:59.026Z,97942.22
2019-03-11T13:41:29.559Z,97936.02
2019-03-11T13:44:00.014Z,97939.78
2019-03-11T13:46:30.599Z,97946.52
2019-03-11T13:49:00.995Z,97935.65
2019-03-11T13:51:33.054Z,97947.94
2019-03-11T13:54:03.517Z,97931.03
2019-03-11T13:56:34.292Z,97950.00
2019-03-11T13:59:04.980Z,97954.20
2019-03-11T14:01:38.267Z,97940.45
2019-03-11T14:04:12.617Z,97942.58
2019-03-11T14:06:43.155Z,97942.42
2019-03-11T14:09:13.524Z,97957.01
2019-03-11T14:11:43.930Z,97969.41
2019-03-11T14:14:14.235Z,97950.09
2019-03-11T14:16:47.726Z,97960.77
2019-03-11T14:19:18.671Z,97962.13
2019-03-11T14:21:55.272Z,97971.25
2019-03-11T14:24:34.667Z,97967.58
2019-03-11T14:27:05.444Z,97970.25
2019-03-11T14:29:38.664Z,97973.49
2019-03-11T14:32:12.892Z,97960.80
2019-03-11T14:34:47.512Z,97960.59
2019-03-11T14:37:19.507Z,97964.18
2019-03-11T14:39:49.906Z,97963.72
2019-03-11T14:42:22.058Z,97966.37
2019-03-11T14:44:53.416Z,97982.05
2019-03-11T14:47:25.407Z,97964.23
2019-03-11T14:49:55.856Z,97995.64
2019-03-11T14:52:26.144Z,98010.37
2019-03-11T14:54:56.471Z,97986.41
2019-03-11T14:57:28.824Z,98033.30
2019-03-11T14:59:59.170Z,98040.63
2019-03-11T15:02:33.645Z,98045.86
2019-03-11T15:05:05.274Z,98062.08
2019-03-11T15:07:44.729Z,98051.80
2019-03-11T15:10:20.445Z,98062.95
2019-03-11T15:12:52.441Z,98063.47
2019-03-11T15:15:23.730Z,98077.84
2019-03-11T15:17:54.636Z,98096.34
2019-03-11T15:20:25.006Z,98111.24
2019-03-11T15:23:05.728Z,98132.16
2019-03-11T15:25:30.671Z,98115.94
2019-03-11T15:28:02.703Z,98131.90
2019-03-11T15:30:33.130Z,98121.30
2019-03-11T15:33:03.454Z,98127.24
2019-03-11T15:35:33.764Z,98134.25
2019-03-11T15:38:04.236Z,98154.17
2019-03-11T15:40:34.594Z,98155.27
2019-03-11T15:43:04.903Z,98158.48
2019-03-11T15:45:38.789Z,98188.53
2019-03-11T15:48:08.493Z,98154.55
2019-03-11T15:50:45.200Z,98182.91
2019-03-11T15:53:23.899Z,98186.93
2019-03-11T15:55:54.227Z,98200.00
2019-03-11T15:58:24.678Z,98201.08
2019-03-11T16:00:58.053Z,98202.42
2019-03-11T16:03:36.284Z,98225.66
2019-03-11T16:06:04.245Z,98236.69
2019-03-11T16:08:34.647Z,98232.47
2019-03-11T16:11:24.689Z,98251.05
2019-03-11T16:13:55.095Z,98274.27
2019-03-11T16:16:27.044Z,98266.94
2019-03-11T16:18:58.178Z,98280.45
2019-03-11T16:21:30.163Z,98279.86
2019-03-11T16:24:02.141Z,98281.47
2019-03-11T16:26:34.307Z,98294.77
2019-03-11T16:29:05.557Z,98312.12
2019-03-11T16:31:42.205Z,98310.80
2019-03-11T16:34:23.758Z,98301.42
2019-03-11T16:37:03.065Z,98318.20
2019-03-11T16:39:37.153Z,98328.98
2019-03-11T16:42:11.831Z,98347.65
2019-03-11T16:44:48.015Z,98343.86
2019-03-11T16:47:33.488Z,98382.49
2019-03-11T16:50:08.215Z,98352.16
2019-03-11T16:52:42.566Z,98354.32
2019-03-11T16:55:21.628Z,98365.45
2019-03-11T16:57:55.121Z,98380.52
2019-03-11T18:14:06.441Z,98558.48
2019-03-11T18:26:27.608Z,98602.46
2019-03-11T18:38:26.485Z,98616.52
2019-03-11T19:47:11.602Z,98730.81
2019-03-11T20:08:50.548Z,98742.47
2019-03-11T20:30:06.311Z,98777.23
2019-03-11T20:32:40.612Z,98776.36
2019-03-11T20:41:08.620Z,98774.88
2019-03-11T20:43:40.477Z,98786.78
2019-03-11T20:46:17.993Z,98782.25
2019-03-11T20:48:50.284Z,98785.05
2019-03-11T20:51:26.497Z,98786.84
2019-03-11T20:53:58.508Z,98796.38
2019-03-11T20:56:30.282Z,98776.42
2019-03-11T20:59:04.666Z,98797.37
2019-03-11T21:01:37.024Z,98800.11
2019-03-11T21:04:11.922Z,98793.27
2019-03-11T21:06:47.236Z,98788.25
2019-03-11T21:09:22.484Z,98787.25
2019-03-11T21:11:54.832Z,98794.71
2019-03-11T21:14:30.759Z,98789.68
2019-03-11T21:17:08.596Z,98794.60
2019-03-11T21:19:40.279Z,98798.32
2019-03-11T21:25:05.618Z,98799.78
2019-03-11T21:27:39.599Z,98811.17
2019-03-11T21:30:16.696Z,98810.63
2019-03-11T21:32:48.587Z,98808.56
2019-03-11T21:35:19.713Z,98811.83
2019-03-11T21:37:55.176Z,98812.42
2019-03-11T21:40:46.547Z,98810.41
2019-03-11T21:46:08.964Z,98830.33
2019-03-11T21:48:41.817Z,98829.23
2019-03-11T21:54:02.509Z,98843.41
2019-03-11T21:56:37.007Z,98855.80
2019-03-11T21:59:24.416Z,98855.55
2019-03-11T22:01:59.014Z,98864.96
2019-03-11T22:04:34.446Z,98872.50
2019-03-11T22:07:09.775Z,98865.63
2019-03-11T22:09:42.229Z,98850.38
2019-03-11T22:12:14.214Z,98842.78
2019-03-11T22:14:44.511Z,98847.16
2019-03-11T22:17:19.430Z,98859.05
2019-03-11T22:19:49.898Z,98873.66
2019-03-11T22:22:22.512Z,98897.16
2019-03-11T22:24:55.690Z,98895.23
2019-03-11T22:27:30.354Z,98904.59
2019-03-11T22:33:07.250Z,98902.38
2019-03-11T22:35:39.345Z,98898.52
2019-03-11T22:38:13.027Z,98905.01
2019-03-11T22:40:43.312Z,98903.13
2019-03-11T22:43:19.193Z,98915.81
2019-03-11T22:45:55.754Z,98916.15
2019-03-11T22:48:30.902Z,98925.50
2019-03-11T22:51:22.253Z,98928.36
2019-03-11T22:53:54.793Z,98926.84
2019-03-11T22:56:29.447Z,98929.20
2019-03-11T22:59:00.903Z,98932.02
2019-03-11T23:01:32.764Z,98937.43
2019-03-11T23:04:03.210Z,98930.48
2019-03-11T23:06:33.571Z,98934.09
2019-03-11T23:09:05.439Z,98937.84
2019-03-11T23:11:36.114Z,98946.02
2019-03-11T23:14:07.966Z,98934.78
2019-03-11T23:16:41.333Z,98953.89
2019-03-11T23:19:11.681Z,98948.59
2019-03-11T23:21:43.592Z,98955.63
2019-03-11T23:24:15.934Z,98963.09
2019-03-11T23:26:47.818Z,98967.53
2019-03-11T23:29:19.870Z,98963.77
2019-03-11T23:31:53.929Z,98961.55
2019-03-11T23:34:25.906Z,98961.55
2019-03-11T23:36:56.327Z,98964.72
2019-03-11T23:39:28.258Z,98961.05
2019-03-11T23:42:02.262Z,98973.38
2019-03-11T23:44:34.929Z,98976.39
2019-03-11T23:47:07.966Z,98974.88
2019-03-11T23:49:41.597Z,98976.45
2019-03-11T23:52:17.676Z,98986.97
